Time;durP1;ratioP1;P1;durP2;ratioP2;P2;SDS_P1;SDS_P2;PMS_P1;PMS_P2;Temp;Humidity;BMP_temperature;BMP_pressure;BME280_temperature;BME280_humidity;BME280_pressure;Samples;Min_cycle;Max_cycle;Signal;HPM_P1;HPM_P2
2022/12/21 05:53:49;;;;;;;1.90;1.50;;;20.70;83.80;;;;;;4882501;29;20233;-72
2022/12/21 05:56:16;;;;;;;1.77;1.42;;;20.70;84.80;;;;;;4882782;29;20210;-72
2022/12/21 05:58:42;;;;;;;2.33;1.45;;;20.70;84.80;;;;;;4882764;29;20213;-72
2022/12/21 06:01:11;;;;;;;2.83;1.60;;;20.70;84.70;;;;;;4882883;29;20222;-72
2022/12/21 06:03:38;;;;;;;3.33;1.38;;;20.70;84.60;;;;;;4883097;29;20230;-73
2022/12/21 06:06:06;;;;;;;4.47;1.40;;;20.80;84.60;;;;;;4882611;29;20206;-73
2022/12/21 06:08:33;;;;;;;4.50;1.60;;;20.70;84.50;;;;;;4882545;29;20206;-73
2022/12/21 06:11:06;;;;;;;2.28;1.50;;;20.80;84.80;;;;;;4882180;29;20752;-73
2022/12/21 06:13:33;;;;;;;1.52;1.42;;;20.80;84.70;;;;;;4882227;29;20563;-73
2022/12/21 06:16:06;;;;;;;1.42;1.33;;;20.80;84.80;;;;;;4882391;29;20210;-72
2022/12/21 06:18:32;;;;;;;2.40;1.42;;;20.80;85.00;;;;;;4882036;29;20747;-72
2022/12/21 06:20:59;;;;;;;1.35;1.30;;;20.80;85.10;;;;;;4882351;29;20230;-73
2022/12/21 06:23:26;;;;;;;3.42;1.40;;;20.80;85.20;;;;;;4886967;29;20226;-73
2022/12/21 06:25:56;;;;;;;1.38;1.35;;;20.80;85.10;;;;;;4886796;29;20245;-73
2022/12/21 06:28:26;;;;;;;7.10;1.65;;;20.80;85.20;;;;;;4887541;29;20214;-71
2022/12/21 06:30:54;;;;;;;3.10;1.45;;;20.80;85.40;;;;;;4887752;29;20667;-73
2022/12/21 06:33:22;;;;;;;1.85;1.17;;;20.80;86.20;;;;;;4887529;29;20293;-72
2022/12/21 06:35:55;;;;;;;1.15;1.13;;;20.80;85.50;;;;;;4887094;29;20290;-73
2022/12/21 06:38:23;;;;;;;1.63;1.38;;;20.90;85.70;;;;;;4887462;29;20222;-72
2022/12/21 06:40:54;;;;;;;2.42;1.25;;;20.80;85.60;;;;;;4887667;29;20261;-72
2022/12/21 06:43:22;;;;;;;2.28;1.40;;;20.80;85.60;;;;;;4887708;29;20222;-72
2022/12/21 06:45:58;;;;;;;3.08;1.50;;;20.90;86.10;;;;;;4887448;29;20213;-72
2022/12/21 06:48:26;;;;;;;1.90;1.25;;;20.80;86.10;;;;;;4882683;29;20262;-73
2022/12/21 06:50:54;;;;;;;9.45;1.63;;;20.80;86.00;;;;;;4881729;29;20222;-73
2022/12/21 06:53:21;;;;;;;4.07;1.40;;;20.80;86.50;;;;;;4881723;29;20217;-74
2022/12/21 06:55:48;;;;;;;9.20;1.50;;;20.80;87.00;;;;;;4881748;29;20217;-73
2022/12/21 06:58:14;;;;;;;6.72;1.70;;;20.90;87.10;;;;;;4881707;29;20292;-73
2022/12/21 07:00:41;;;;;;;5.80;1.40;;;20.90;87.10;;;;;;4880475;29;20261;-73
2022/12/21 07:03:09;;;;;;;2.28;1.23;;;20.90;87.10;;;;;;4881490;29;20212;-73
2022/12/21 07:05:36;;;;;;;4.32;1.42;;;20.90;86.90;;;;;;4881553;29;20209;-73
2022/12/21 07:08:03;;;;;;;3.50;1.23;;;20.80;86.90;;;;;;4881493;29;20206;-73
2022/12/21 07:10:29;;;;;;;2.65;1.65;;;20.90;87.00;;;;;;4881411;29;20233;-73
2022/12/21 07:12:56;;;;;;;7.70;1.80;;;20.90;87.00;;;;;;4881393;29;20202;-74
2022/12/21 07:15:23;;;;;;;9.40;1.73;;;20.80;87.10;;;;;;4881395;29;20214;-73
2022/12/21 07:17:49;;;;;;;5.82;1.88;;;20.90;86.00;;;;;;4881481;29;20666;-73
2022/12/21 07:20:17;;;;;;;11.93;1.90;;;20.90;85.30;;;;;;4881442;29;20210;-72
2022/12/21 07:22:45;;;;;;;15.00;1.73;;;20.70;85.20;;;;;;4881295;29;20228;-74
2022/12/21 07:25:19;;;;;;;6.15;2.40;;;20.70;85.40;;;;;;4881654;29;20233;-74
2022/12/21 07:27:46;;;;;;;12.48;2.03;;;20.70;84.50;;;;;;4884475;29;20252;-72
2022/12/21 07:30:14;;;;;;;7.88;2.70;;;20.70;85.40;;;;;;4881079;29;20206;-72
2022/12/21 07:32:41;;;;;;;7.43;2.20;;;20.70;85.30;;;;;;4881238;29;20289;-72
2022/12/21 07:35:09;;;;;;;7.07;1.80;;;20.70;85.10;;;;;;4881122;29;20209;-72
2022/12/21 07:37:37;;;;;;;9.18;1.90;;;20.70;85.00;;;;;;4881053;29;20206;-72
2022/12/21 07:40:06;;;;;;;10.60;2.35;;;20.70;85.20;;;;;;4881051;29;20643;-72
2022/12/21 07:42:32;;;;;;;12.23;2.00;;;20.70;84.90;;;;;;4880973;29;20241;-72
2022/12/21 07:44:59;;;;;;;5.03;2.15;;;20.80;85.20;;;;;;4880911;29;20218;-72
2022/12/21 07:47:26;;;;;;;20.23;2.15;;;20.80;85.10;;;;;;4880816;29;20202;-72
2022/12/21 07:49:52;;;;;;;13.45;2.22;;;20.80;85.00;;;;;;4881010;29;20203;-72
2022/12/21 07:52:19;;;;;;;17.13;2.08;;;20.90;85.00;;;;;;4880693;29;20221;-72
2022/12/21 07:54:47;;;;;;;11.50;2.13;;;20.90;84.40;;;;;;4880316;29;20221;-72
2022/12/21 07:57:14;;;;;;;12.68;2.15;;;20.90;83.80;;;;;;4881445;29;20210;-72
2022/12/21 07:59:40;;;;;;;7.55;1.80;;;20.90;84.40;;;;;;4880589;29;20270;-71
2022/12/21 08:02:10;;;;;;;15.73;2.35;;;20.90;83.50;;;;;;4880495;29;20237;-71
2022/12/21 08:04:37;;;;;;;13.35;2.03;;;20.90;83.20;;;;;;4880496;29;20582;-71
2022/12/21 08:07:04;;;;;;;20.10;2.40;;;20.80;83.00;;;;;;4880690;29;20214;-73
2022/12/21 08:09:30;;;;;;;13.30;2.35;;;20.80;83.00;;;;;;4880553;29;20233;-73
2022/12/21 08:11:59;;;;;;;11.60;2.65;;;20.80;82.30;;;;;;4880065;29;20226;-73
2022/12/21 08:14:25;;;;;;;12.77;2.00;;;20.80;81.80;;;;;;4880375;29;20209;-73
2022/12/21 08:16:52;;;;;;;11.57;2.30;;;20.80;81.40;;;;;;4880290;29;20210;-73
2022/12/21 08:19:19;;;;;;;6.88;2.10;;;20.80;81.20;;;;;;4879988;29;20678;-73
2022/12/21 08:21:45;;;;;;;8.95;2.00;;;20.80;81.50;;;;;;4880123;29;20226;-73
2022/12/21 08:24:12;;;;;;;32.97;3.20;;;20.80;81.10;;;;;;4880168;29;20233;-73
2022/12/21 08:26:39;;;;;;;11.50;2.03;;;20.80;81.00;;;;;;4880226;29;20580;-73
2022/12/21 08:29:07;;;;;;;9.20;1.75;;;20.70;81.30;;;;;;4880149;29;20209;-73
2022/12/21 08:31:36;;;;;;;15.82;1.52;;;20.70;82.80;;;;;;4879752;29;20728;-73
2022/12/21 08:34:03;;;;;;;11.02;2.30;;;20.70;82.70;;;;;;4879767;29;20259;-73
2022/12/21 08:36:31;;;;;;;7.20;2.08;;;20.80;83.90;;;;;;4879772;29;20701;-73
2022/12/21 08:38:58;;;;;;;9.90;2.10;;;20.80;80.50;;;;;;4880015;29;20579;-73
2022/12/21 08:41:25;;;;;;;24.45;2.00;;;20.80;81.30;;;;;;4879972;29;20230;-73
2022/12/21 08:43:52;;;;;;;10.52;2.33;;;20.80;81.20;;;;;;4879608;29;20222;-73
2022/12/21 08:46:20;;;;;;;10.10;1.90;;;20.80;80.90;;;;;;4879955;29;20202;-73
2022/12/21 08:48:49;;;;;;;9.98;1.85;;;20.80;80.50;;;;;;4879983;29;20241;-73
2022/12/21 08:51:16;;;;;;;5.53;1.98;;;20.80;80.50;;;;;;4879974;29;20257;-73
2022/12/21 08:53:42;;;;;;;7.63;2.30;;;20.80;80.40;;;;;;4879666;29;20630;-73
2022/12/21 08:56:09;;;;;;;8.82;2.28;;;20.80;80.40;;;;;;4880028;29;20206;-73
2022/12/21 08:58:36;;;;;;;7.93;1.77;;;20.80;80.40;;;;;;4879876;29;20206;-73
2022/12/21 09:01:03;;;;;;;12.40;1.80;;;20.80;80.40;;;;;;4879441;29;20572;-73
2022/12/21 09:03:31;;;;;;;6.07;1.20;;;20.80;80.40;;;;;;4879848;29;20210;-74
2022/12/21 09:06:00;;;;;;;4.07;1.38;;;20.80;80.00;;;;;;4879512;29;20686;-73
2022/12/21 09:08:26;;;;;;;6.43;1.95;;;20.80;79.90;;;;;;4880867;29;20217;-73
2022/12/21 09:11:04;;;;;;;5.45;1.52;;;20.90;79.80;;;;;;4880516;29;20233;-73
2022/12/21 09:13:31;;;;;;;11.63;1.77;;;20.90;79.50;;;;;;4881510;29;20626;-73
2022/12/21 09:15:58;;;;;;;9.93;1.98;;;20.80;79.30;;;;;;4879421;29;20206;-73
2022/12/21 09:18:25;;;;;;;4.13;1.50;;;20.90;80.60;;;;;;4880825;29;20210;-73
2022/12/21 09:20:54;;;;;;;8.90;1.65;;;20.90;81.20;;;;;;4880492;29;20249;-75
2022/12/21 09:23:21;;;;;;;7.18;1.70;;;20.80;83.60;;;;;;4882528;29;20209;-74
2022/12/21 09:25:48;;;;;;;7.22;1.83;;;20.90;80.30;;;;;;4884091;29;20651;-74
2022/12/21 09:28:14;;;;;;;11.23;1.83;;;20.80;79.60;;;;;;4884349;29;20670;-74
2022/12/21 09:30:41;;;;;;;1.70;1.50;;;20.80;80.00;;;;;;4884703;29;20226;-74
2022/12/21 09:33:08;;;;;;;6.18;1.40;;;20.80;79.40;;;;;;4884895;29;20282;-73
2022/12/21 09:35:37;;;;;;;12.20;1.58;;;20.80;79.30;;;;;;4883982;29;20210;-73
2022/12/21 09:38:05;;;;;;;3.00;1.40;;;20.80;79.00;;;;;;4884083;29;20229;-73
2022/12/21 09:40:33;;;;;;;12.48;1.92;;;20.80;79.20;;;;;;4884114;29;20237;-72
2022/12/21 09:43:08;;;;;;;10.57;2.00;;;20.80;79.30;;;;;;4883413;29;20206;-72
2022/12/21 09:45:45;;;;;;;4.63;1.60;;;20.90;79.80;;;;;;4884693;29;20214;-70
2022/12/21 09:48:15;;;;;;;7.63;1.52;;;20.90;79.50;;;;;;4886636;29;20552;-72
2022/12/21 09:50:45;;;;;;;7.60;1.70;;;20.90;80.50;;;;;;4886509;29;20230;-72
2022/12/21 09:53:25;;;;;;;8.82;1.38;;;20.90;83.20;;;;;;4886958;29;20643;-72
2022/12/21 09:55:55;;;;;;;10.07;1.60;;;21.00;84.60;;;;;;4887946;29;20662;-72
2022/12/21 09:58:27;;;;;;;6.88;1.85;;;21.00;82.80;;;;;;4885989;29;20635;-70
2022/12/21 10:01:00;;;;;;;8.02;1.17;;;21.20;82.60;;;;;;4882567;29;20233;-71
2022/12/21 10:03:42;;;;;;;3.63;1.67;;;21.40;82.30;;;;;;4886446;29;20193;-71
2022/12/21 10:06:35;;;;;;;14.68;1.73;;;21.50;81.80;;;;;;4886968;29;20213;-73
2022/12/21 10:09:20;;;;;;;8.02;1.58;;;21.60;79.90;;;;;;4886231;29;20202;-71
2022/12/21 10:12:02;;;;;;;4.90;1.30;;;21.70;74.20;;;;;;4886434;29;20229;-73
2022/12/21 10:14:38;;;;;;;8.73;1.98;;;21.80;75.00;;;;;;4885360;29;20183;-72
2022/12/21 10:17:12;;;;;;;6.38;1.38;;;21.70;75.10;;;;;;4885757;29;20655;-73
2022/12/21 10:19:48;;;;;;;6.68;1.50;;;21.80;75.20;;;;;;4886492;29;20191;-72
2022/12/21 10:22:21;;;;;;;8.07;1.52;;;21.90;75.00;;;;;;4885560;29;20248;-71
2022/12/21 10:24:53;;;;;;;11.45;2.00;;;21.90;75.00;;;;;;4885441;29;20690;-73
2022/12/21 10:27:27;;;;;;;7.90;1.25;;;21.90;74.80;;;;;;4884647;29;20603;-71
2022/12/21 10:29:58;;;;;;;11.60;1.33;;;21.90;74.40;;;;;;4886329;29;20190;-73
2022/12/21 10:32:29;;;;;;;13.65;1.80;;;21.90;74.40;;;;;;4886042;29;20226;-73
2022/12/21 10:34:58;;;;;;;3.97;1.30;;;21.90;74.50;;;;;;4890754;29;20654;-73
2022/12/21 10:37:24;;;;;;;5.85;1.70;;;21.90;74.60;;;;;;4887558;29;20213;-71
2022/12/21 10:39:56;;;;;;;3.88;1.27;;;21.90;75.00;;;;;;4885287;29;20210;-70
2022/12/21 10:42:29;;;;;;;6.03;1.42;;;21.90;74.90;;;;;;4884775;29;20230;-73
2022/12/21 10:44:55;;;;;;;3.25;1.27;;;21.90;75.10;;;;;;4884677;29;20217;-73
2022/12/21 10:47:25;;;;;;;4.05;1.30;;;22.00;75.50;;;;;;4885659;29;20214;-73
2022/12/21 10:49:58;;;;;;;4.97;1.52;;;22.00;75.90;;;;;;4883939;29;20217;-72
2022/12/21 10:52:33;;;;;;;5.18;1.40;;;21.90;80.40;;;;;;4882096;29;20643;-73
2022/12/21 10:55:02;;;;;;;5.15;1.40;;;21.90;81.00;;;;;;4885384;29;20182;-73
2022/12/21 10:57:32;;;;;;;2.80;1.33;;;22.00;80.40;;;;;;4883278;29;20210;-73
2022/12/21 11:00:18;;;;;;;2.30;1.48;;;22.10;80.40;;;;;;4882945;29;20200;-74
2022/12/21 11:02:47;;;;;;;5.65;1.25;;;22.20;80.30;;;;;;4882005;29;20331;-71
2022/12/21 11:05:26;;;;;;;4.10;1.35;;;22.20;80.90;;;;;;4881828;29;20699;-74
2022/12/21 11:07:53;;;;;;;4.00;1.20;;;22.30;80.80;;;;;;4883122;29;20190;-71
2022/12/21 11:10:28;;;;;;;4.90;1.33;;;22.30;80.70;;;;;;4881630;29;20233;-72
2022/12/21 11:12:55;;;;;;;1.20;1.02;;;22.30;80.80;;;;;;4881858;29;20250;-72
2022/12/21 11:15:23;;;;;;;6.35;1.23;;;22.30;81.00;;;;;;4881455;29;20210;-72
2022/12/21 11:17:50;;;;;;;6.28;1.20;;;22.30;80.50;;;;;;4881770;29;20730;-71
2022/12/21 11:22:47;;;;;;;5.10;1.20;;;22.30;79.70;;;;;;4898633;29;20215;-73
2022/12/21 11:25:17;;;;;;;7.53;1.67;;;22.20;74.40;;;;;;4899842;29;20285;-71
2022/12/21 11:27:47;;;;;;;3.90;1.20;;;22.30;72.00;;;;;;4900130;29;20246;-69
2022/12/21 11:30:21;;;;;;;9.15;1.40;;;22.30;71.80;;;;;;4899964;29;20213;-70
2022/12/21 11:32:49;;;;;;;10.05;1.40;;;22.20;72.00;;;;;;4900312;29;20186;-70
2022/12/21 11:35:20;;;;;;;4.95;1.60;;;22.30;72.40;;;;;;4900501;29;20202;-71
2022/12/21 11:37:52;;;;;;;6.97;1.80;;;22.30;72.50;;;;;;4899585;29;20285;-71
2022/12/21 11:40:21;;;;;;;10.00;1.40;;;22.30;72.60;;;;;;4899640;29;20197;-71
2022/12/21 11:42:55;;;;;;;16.50;1.60;;;22.30;72.60;;;;;;4899990;29;20216;-71
2022/12/21 11:45:25;;;;;;;5.40;1.40;;;22.30;72.80;;;;;;4900338;29;20696;-71
2022/12/21 11:48:16;;;;;;;6.00;1.30;;;22.20;72.70;;;;;;4900532;29;20210;-71
2022/12/21 11:50:51;;;;;;;6.32;1.17;;;22.30;73.00;;;;;;4899525;29;20225;-71
2022/12/21 11:53:54;;;;;;;3.83;1.08;;;22.30;73.30;;;;;;4899414;29;20665;-71
2022/12/21 11:56:30;;;;;;;7.45;1.73;;;22.30;72.80;;;;;;4899670;29;20186;-71
2022/12/21 11:59:24;;;;;;;5.22;1.30;;;22.40;73.80;;;;;;4899629;29;20194;-71
2022/12/21 12:02:04;;;;;;;7.30;1.48;;;22.30;73.00;;;;;;4899662;29;20225;-71
2022/12/21 12:04:50;;;;;;;3.88;1.08;;;22.30;73.90;;;;;;4899236;29;20194;-71
2022/12/21 12:07:47;;;;;;;9.32;1.60;;;22.30;73.90;;;;;;4899277;29;20197;-72
2022/12/21 12:10:45;;;;;;;3.30;1.40;;;22.30;73.50;;;;;;4899175;29;20190;-71
2022/12/21 12:13:24;;;;;;;5.65;1.42;;;22.30;73.30;;;;;;4899517;29;20242;-71
2022/12/21 12:16:01;;;;;;;6.43;2.13;;;22.30;74.30;;;;;;4899212;29;20637;-71
2022/12/21 12:18:41;;;;;;;15.10;5.70;;;22.40;74.70;;;;;;4899099;29;20197;-71
2022/12/21 12:21:29;;;;;;;18.67;9.60;;;22.40;74.70;;;;;;4898726;29;20245;-71
2022/12/21 12:24:15;;;;;;;26.75;12.93;;;22.30;74.80;;;;;;4899378;29;20185;-71
2022/12/21 12:26:52;;;;;;;26.00;13.88;;;22.30;74.80;;;;;;4900116;29;20301;-70
2022/12/21 12:29:37;;;;;;;34.13;14.45;;;22.20;74.80;;;;;;4899396;29;20196;-71
2022/12/21 12:32:21;;;;;;;38.45;16.15;;;22.10;74.60;;;;;;4898738;29;20233;-71
2022/12/21 12:35:04;;;;;;;36.75;17.60;;;22.00;74.50;;;;;;4898592;29;20197;-71
2022/12/21 12:37:38;;;;;;;38.50;18.90;;;21.90;74.60;;;;;;4898846;29;20200;-71
2022/12/21 12:40:16;;;;;;;43.42;19.67;;;21.80;74.50;;;;;;4898682;29;20189;-71
2022/12/21 12:42:51;;;;;;;42.95;20.42;;;21.70;74.50;;;;;;4898836;29;20190;-71
2022/12/21 12:45:29;;;;;;;54.42;25.33;;;21.70;74.90;;;;;;4898629;29;20209;-71
2022/12/21 12:48:09;;;;;;;46.45;26.02;;;21.60;75.00;;;;;;4898635;29;20197;-71
2022/12/21 12:50:43;;;;;;;53.03;26.60;;;21.50;75.30;;;;;;4898566;29;20225;-71
2022/12/21 12:53:22;;;;;;;50.83;26.80;;;21.50;75.30;;;;;;4898702;29;20188;-72
2022/12/21 12:55:57;;;;;;;53.10;25.60;;;21.40;75.30;;;;;;4898289;29;20633;-71
2022/12/21 12:58:34;;;;;;;60.22;26.90;;;21.40;75.40;;;;;;4901231;29;20224;-71
2022/12/21 13:01:04;;;;;;;53.63;28.35;;;21.30;75.20;;;;;;4902750;29;20232;-71
2022/12/21 13:03:52;;;;;;;51.55;26.55;;;21.30;75.60;;;;;;4902694;29;20325;-71
2022/12/21 13:06:28;;;;;;;50.60;27.75;;;21.30;76.30;;;;;;4902279;29;20256;-72
2022/12/21 13:09:02;;;;;;;64.75;27.88;;;21.30;76.70;;;;;;4902385;29;20193;-72
2022/12/21 14:06:08;;;;;;;41.38;19.58;;;20.40;79.30;;;;;;5426983;23;20245;-75
2022/12/21 14:08:53;;;;;;;35.33;20.25;;;20.50;80.00;;;;;;4882230;29;20214;-73
2022/12/21 14:11:46;;;;;;;30.75;19.92;;;20.40;80.00;;;;;;4882751;29;20191;-72
2022/12/21 14:14:30;;;;;;;33.78;20.00;;;20.40;79.40;;;;;;4882233;29;20673;-72
2022/12/21 14:17:16;;;;;;;35.33;19.45;;;20.30;79.80;;;;;;4882423;29;20282;-72
2022/12/21 14:19:51;;;;;;;31.73;18.77;;;20.30;79.80;;;;;;4882682;29;20557;-70
2022/12/21 14:22:35;;;;;;;33.97;18.98;;;20.20;79.70;;;;;;4882399;29;20194;-70
2022/12/21 14:25:08;;;;;;;30.52;17.80;;;20.20;79.70;;;;;;4882218;29;20226;-70
2022/12/21 14:27:35;;;;;;;29.83;17.20;;;20.20;80.00;;;;;;4882326;29;20190;-70
2022/12/21 14:30:15;;;;;;;28.35;16.92;;;20.20;80.40;;;;;;4882243;29;20210;-70
2022/12/21 14:32:42;;;;;;;29.70;16.40;;;20.20;80.20;;;;;;4882444;29;20194;-70
2022/12/21 14:35:24;;;;;;;35.25;16.92;;;20.20;80.50;;;;;;4881744;29;20733;-70
2022/12/21 14:38:25;;;;;;;25.60;16.02;;;20.20;80.10;;;;;;4882133;29;20191;-70
2022/12/21 14:41:00;;;;;;;26.48;16.75;;;20.10;79.70;;;;;;4882126;29;20190;-70
2022/12/21 14:43:27;;;;;;;25.30;16.42;;;20.20;80.50;;;;;;4881951;29;20636;-70
2022/12/21 14:45:54;;;;;;;24.67;16.13;;;20.10;80.60;;;;;;4881793;29;20226;-70
2022/12/21 14:48:53;;;;;;;26.00;16.00;;;20.10;81.00;;;;;;4881924;29;20237;-70
2022/12/21 14:51:49;;;;;;;28.17;15.38;;;20.00;81.10;;;;;;4881862;29;20206;-71
2022/12/21 14:54:25;;;;;;;24.48;13.95;;;20.20;80.60;;;;;;4881965;29;20269;-71
2022/12/21 14:57:19;;;;;;;26.73;14.77;;;20.20;80.20;;;;;;4881446;29;20630;-71
2022/12/21 14:59:49;;;;;;;23.75;13.95;;;20.20;79.70;;;;;;4881753;29;20292;-71
2022/12/21 15:02:24;;;;;;;22.85;13.85;;;20.20;80.60;;;;;;4881724;29;20187;-71
2022/12/21 15:04:55;;;;;;;23.92;14.45;;;20.10;80.40;;;;;;4882328;29;20214;-71
2022/12/21 15:07:26;;;;;;;19.48;13.30;;;20.20;80.60;;;;;;4881406;29;20246;-71
2022/12/21 15:09:58;;;;;;;21.77;13.98;;;20.20;80.30;;;;;;4881629;29;20206;-71
2022/12/21 15:12:37;;;;;;;24.65;13.70;;;20.30;80.20;;;;;;4881265;29;20670;-72
2022/12/21 15:15:22;;;;;;;20.15;12.80;;;20.20;79.80;;;;;;4881127;29;20594;-72
2022/12/21 15:17:48;;;;;;;26.48;12.98;;;20.30;79.90;;;;;;4881701;29;20205;-72
2022/12/21 15:20:40;;;;;;;18.15;12.40;;;20.20;80.30;;;;;;4881028;29;20210;-74
2022/12/21 15:23:14;;;;;;;18.40;12.18;;;20.10;79.60;;;;;;4881128;29;20726;-74
2022/12/21 15:25:43;;;;;;;21.42;12.70;;;20.10;80.40;;;;;;4881115;29;20234;-73
2022/12/21 15:28:15;;;;;;;20.55;11.93;;;20.00;80.60;;;;;;4881423;29;20210;-73
2022/12/21 15:30:46;;;;;;;19.35;12.25;;;20.10;80.50;;;;;;4881225;29;20190;-73
2022/12/21 15:33:17;;;;;;;18.60;11.02;;;20.00;80.60;;;;;;4881191;29;20195;-73
2022/12/21 15:35:48;;;;;;;20.23;10.43;;;20.00;80.70;;;;;;4880801;29;20702;-73
2022/12/21 15:38:20;;;;;;;18.75;10.82;;;20.10;81.10;;;;;;4881097;29;20194;-73
2022/12/21 15:40:56;;;;;;;17.58;11.07;;;19.90;81.20;;;;;;4880997;29;20205;-73
2022/12/21 15:43:29;;;;;;;18.98;11.13;;;19.90;81.50;;;;;;4881005;29;20597;-73
2022/12/21 15:46:01;;;;;;;18.63;10.35;;;19.80;81.90;;;;;;4880761;29;20234;-73
2022/12/21 15:48:34;;;;;;;16.98;9.95;;;19.80;82.00;;;;;;4881719;29;20212;-73
2022/12/21 15:51:11;;;;;;;19.13;9.32;;;19.80;84.70;;;;;;4880845;29;20202;-73
2022/12/21 15:53:37;;;;;;;12.32;9.15;;;19.90;90.30;;;;;;4880920;29;20190;-73
2022/12/21 15:56:12;;;;;;;15.88;8.88;;;19.80;89.50;;;;;;4881421;29;20222;-73
2022/12/21 15:58:40;;;;;;;16.35;10.07;;;19.80;87.30;;;;;;4880871;29;20198;-73
2022/12/21 16:01:14;;;;;;;16.98;9.38;;;19.80;86.50;;;;;;4880356;29;20577;-73
2022/12/21 16:03:42;;;;;;;15.23;9.05;;;19.80;86.30;;;;;;4880676;29;20284;-73
2022/12/21 16:06:13;;;;;;;13.05;9.02;;;19.80;86.20;;;;;;4880335;29;20804;-73
2022/12/21 16:08:44;;;;;;;13.80;9.27;;;19.80;86.40;;;;;;4880415;29;20210;-73
2022/12/21 16:11:24;;;;;;;18.73;8.80;;;19.70;86.50;;;;;;4880460;29;20194;-73
2022/12/21 16:13:59;;;;;;;16.83;8.10;;;19.80;86.30;;;;;;4880523;29;20201;-73
2022/12/21 16:16:27;;;;;;;14.57;8.88;;;19.90;86.30;;;;;;4880340;29;20221;-73
2022/12/21 16:18:56;;;;;;;13.90;8.57;;;19.90;86.10;;;;;;4880322;29;20213;-73
2022/12/21 16:21:31;;;;;;;11.82;7.32;;;19.90;86.20;;;;;;4880331;29;20266;-73
2022/12/21 16:24:00;;;;;;;12.88;8.30;;;19.90;86.80;;;;;;4880074;29;20238;-73
2022/12/21 16:26:29;;;;;;;11.82;7.45;;;19.90;86.20;;;;;;4879790;29;20674;-73
2022/12/21 16:28:58;;;;;;;10.43;7.30;;;19.90;85.80;;;;;;4880444;29;20213;-73
2022/12/21 16:31:45;;;;;;;12.65;6.93;;;19.90;85.90;;;;;;4880253;29;20206;-73
2022/12/21 16:34:21;;;;;;;10.77;7.43;;;20.00;86.10;;;;;;4880172;29;20214;-73
2022/12/21 16:36:48;;;;;;;11.70;7.10;;;19.90;85.60;;;;;;4880039;29;20221;-73
2022/12/21 16:39:16;;;;;;;10.32;6.20;;;20.00;85.60;;;;;;4879769;29;20667;-73
2022/12/21 16:41:45;;;;;;;9.95;6.95;;;20.00;85.70;;;;;;4880015;29;20206;-73
2022/12/21 16:44:36;;;;;;;9.82;6.18;;;19.90;85.30;;;;;;4879805;29;20198;-73
2022/12/21 16:47:22;;;;;;;11.25;6.65;;;19.90;85.40;;;;;;4880020;29;20242;-73
2022/12/21 16:49:50;;;;;;;11.60;6.78;;;19.90;85.50;;;;;;4879986;29;20194;-73
2022/12/21 16:52:40;;;;;;;12.25;6.45;;;19.80;85.50;;;;;;4879727;29;20558;-73
2022/12/21 16:55:23;;;;;;;11.00;6.70;;;19.80;85.00;;;;;;4879555;29;20709;-73
2022/12/21 16:57:58;;;;;;;11.57;6.70;;;19.70;85.10;;;;;;4879803;29;20194;-73
2022/12/21 17:00:28;;;;;;;14.07;6.90;;;19.70;86.10;;;;;;4879900;29;20190;-73
2022/12/21 17:02:59;;;;;;;8.10;5.88;;;19.80;86.10;;;;;;4880835;29;20198;-73
2022/12/21 17:05:29;;;;;;;8.18;6.38;;;19.80;85.90;;;;;;4879937;29;20230;-73
2022/12/21 17:08:00;;;;;;;8.43;6.47;;;19.80;86.00;;;;;;4879519;29;20229;-72
2022/12/21 17:10:27;;;;;;;6.60;5.78;;;19.80;86.00;;;;;;4879806;29;20194;-72
2022/12/21 17:13:00;;;;;;;6.78;5.53;;;19.60;85.80;;;;;;4879842;29;20221;-72
2022/12/21 17:15:33;;;;;;;6.47;5.72;;;19.70;86.00;;;;;;4879697;29;20230;-72
2022/12/21 17:18:01;;;;;;;7.00;6.15;;;19.60;85.80;;;;;;4879498;29;20624;-72
2022/12/21 17:20:41;;;;;;;7.05;5.60;;;19.60;85.80;;;;;;4879733;29;20193;-72
2022/12/21 17:23:21;;;;;;;7.72;5.22;;;19.60;85.50;;;;;;4879606;29;20198;-72
2022/12/21 17:25:50;;;;;;;6.25;5.13;;;19.60;85.80;;;;;;4879658;29;20229;-73
2022/12/21 17:28:36;;;;;;;8.10;5.75;;;19.70;85.90;;;;;;4882049;29;20218;-73
2022/12/21 17:31:06;;;;;;;6.93;5.45;;;19.80;86.60;;;;;;4882656;29;20206;-72
2022/12/21 17:33:34;;;;;;;8.52;5.13;;;19.80;86.80;;;;;;4883434;29;20560;-72
2022/12/21 17:36:03;;;;;;;8.38;5.57;;;19.80;87.30;;;;;;4882943;29;20236;-73
2022/12/21 17:38:29;;;;;;;7.30;5.55;;;19.90;87.50;;;;;;4882140;29;20191;-73
2022/12/21 17:40:56;;;;;;;8.35;5.40;;;20.00;87.70;;;;;;4881692;29;20203;-73
2022/12/21 17:43:24;;;;;;;6.70;5.45;;;20.00;87.70;;;;;;4881880;29;20666;-73
2022/12/21 17:45:54;;;;;;;11.13;5.57;;;20.00;87.60;;;;;;4885645;29;20234;-73
2022/12/21 17:48:21;;;;;;;9.60;4.93;;;20.10;87.60;;;;;;4885915;29;20221;-73
2022/12/21 17:50:49;;;;;;;9.68;4.47;;;20.10;87.80;;;;;;4885962;29;20213;-73
2022/12/21 17:53:19;;;;;;;7.70;5.20;;;20.10;87.50;;;;;;4884923;29;20206;-72
2022/12/21 17:55:46;;;;;;;11.48;5.57;;;20.10;87.60;;;;;;4885778;29;20233;-74
2022/12/21 17:58:13;;;;;;;8.65;5.03;;;20.10;87.50;;;;;;4883368;29;20214;-72
2022/12/21 18:00:42;;;;;;;7.10;4.93;;;20.20;87.40;;;;;;4883432;29;20210;-72
2022/12/21 18:03:17;;;;;;;9.52;4.43;;;20.10;87.30;;;;;;4883595;29;20213;-71
2022/12/21 18:05:43;;;;;;;11.55;4.47;;;20.10;87.30;;;;;;4886010;29;20226;-71
2022/12/21 18:08:12;;;;;;;11.43;4.80;;;20.10;87.50;;;;;;4883353;29;20626;-72
2022/12/21 18:10:39;;;;;;;10.02;4.68;;;20.10;87.10;;;;;;4884668;29;20206;-72
2022/12/21 18:13:06;;;;;;;7.35;5.10;;;20.10;87.60;;;;;;4886636;29;20202;-73
2022/12/21 18:15:36;;;;;;;7.00;4.00;;;20.00;86.90;;;;;;4889998;29;20222;-74
2022/12/21 18:18:07;;;;;;;13.27;4.85;;;20.10;88.40;;;;;;4883118;29;20745;-76
2022/12/21 18:20:37;;;;;;;13.63;5.25;;;20.10;89.10;;;;;;4882125;29;20602;-76
2022/12/21 18:23:09;;;;;;;11.77;4.60;;;20.00;89.10;;;;;;4882365;29;20243;-76
2022/12/21 18:25:36;;;;;;;5.32;4.30;;;20.10;89.40;;;;;;4881147;29;20226;-76
2022/12/21 18:28:03;;;;;;;10.20;5.20;;;19.90;89.10;;;;;;4881912;29;20718;-76
2022/12/21 18:30:29;;;;;;;9.18;4.00;;;19.80;88.90;;;;;;4882157;29;20210;-76
2022/12/21 18:32:57;;;;;;;9.23;4.68;;;19.90;89.10;;;;;;4882193;29;20210;-75
2022/12/21 18:35:28;;;;;;;10.25;4.32;;;19.90;89.30;;;;;;4882103;29;20232;-74
2022/12/21 18:38:02;;;;;;;22.50;4.68;;;19.90;88.70;;;;;;4882214;29;20191;-74
2022/12/21 18:40:29;;;;;;;15.23;4.65;;;19.90;88.90;;;;;;4881828;29;20592;-74
2022/12/21 18:43:01;;;;;;;17.55;5.05;;;20.00;88.80;;;;;;4881782;29;20687;-75
2022/12/21 18:45:28;;;;;;;9.45;4.00;;;19.90;89.10;;;;;;4883723;29;20345;-73
2022/12/21 18:47:55;;;;;;;9.68;4.00;;;19.90;89.70;;;;;;4882192;29;20586;-74
2022/12/21 18:50:25;;;;;;;13.13;4.80;;;19.90;89.70;;;;;;4883027;29;20215;-73
2022/12/21 18:52:54;;;;;;;10.35;3.47;;;19.90;89.90;;;;;;4888311;29;20226;-74
2022/12/21 18:55:24;;;;;;;13.43;4.90;;;19.90;90.20;;;;;;4887612;29;20230;-73
2022/12/21 18:57:51;;;;;;;12.55;4.30;;;19.90;90.10;;;;;;4888953;29;20238;-75
2022/12/21 19:00:20;;;;;;;9.40;4.20;;;20.00;90.30;;;;;;4889124;29;20659;-74
2022/12/21 19:02:49;;;;;;;8.25;4.05;;;20.00;90.20;;;;;;4883134;29;20245;-73
2022/12/21 19:05:23;;;;;;;8.07;4.03;;;20.10;90.40;;;;;;4885589;29;20229;-75
2022/12/21 19:07:52;;;;;;;6.85;3.55;;;20.10;90.40;;;;;;4883426;29;20258;-73
2022/12/21 19:10:25;;;;;;;12.75;4.38;;;20.10;90.40;;;;;;4883026;29;20217;-74
2022/12/21 19:12:53;;;;;;;7.32;3.72;;;20.10;90.40;;;;;;4883344;29;20198;-75
2022/12/21 19:15:20;;;;;;;5.72;3.35;;;20.10;90.60;;;;;;4884106;29;20233;-71
2022/12/21 19:17:47;;;;;;;6.15;3.72;;;20.10;90.80;;;;;;4882686;29;20213;-73
2022/12/21 19:20:21;;;;;;;6.10;3.25;;;20.10;90.90;;;;;;4881568;29;20245;-74
2022/12/21 19:22:48;;;;;;;11.52;4.10;;;20.10;91.00;;;;;;4881396;29;20200;-73
2022/12/21 19:25:18;;;;;;;9.52;3.25;;;20.10;90.90;;;;;;4881425;29;20226;-73
2022/12/21 19:27:47;;;;;;;8.82;3.67;;;20.10;91.00;;;;;;4881429;29;20551;-73
2022/12/21 19:30:19;;;;;;;7.10;3.67;;;20.10;91.10;;;;;;4881752;29;20217;-74
2022/12/21 19:32:46;;;;;;;6.70;3.28;;;20.20;91.10;;;;;;4880839;29;20584;-73
2022/12/21 19:35:12;;;;;;;7.07;3.63;;;20.10;91.30;;;;;;4880994;29;20222;-73
2022/12/21 19:37:39;;;;;;;9.85;3.65;;;20.20;91.30;;;;;;4885625;29;20202;-73
2022/12/21 19:40:09;;;;;;;8.70;3.45;;;20.10;91.40;;;;;;4881250;29;20210;-73
2022/12/21 19:42:36;;;;;;;4.85;3.30;;;20.20;91.20;;;;;;4880690;29;20666;-73
2022/12/21 19:45:13;;;;;;;7.53;3.97;;;20.10;91.40;;;;;;4880736;29;20709;-73
2022/12/21 19:47:40;;;;;;;8.65;3.50;;;20.10;91.30;;;;;;4881061;29;20217;-73
2022/12/21 19:50:13;;;;;;;5.70;3.20;;;20.20;91.70;;;;;;4880705;29;20671;-73
2022/12/21 19:52:40;;;;;;;9.27;3.38;;;20.10;91.60;;;;;;4881434;29;20233;-72
2022/12/21 19:55:08;;;;;;;5.53;3.17;;;20.10;91.60;;;;;;4880515;29;20710;-73